sensor_id;sensor_type;location;lat;lon;timestamp;temperature;humidity
28767;DHT22;15921;52.034;20.650;2022-08-03T00:01:03;16.30;99.90
28767;DHT22;15921;52.034;20.650;2022-08-03T00:03:29;16.30;99.90
28767;DHT22;15921;52.034;20.650;2022-08-03T00:05:54;16.40;99.90
28767;DHT22;15921;52.034;20.650;2022-08-03T00:08:20;16.40;99.90
28767;DHT22;15921;52.034;20.650;2022-08-03T00:10:45;16.30;99.90
28767;DHT22;15921;52.034;20.650;2022-08-03T00:13:11;16.30;99.90
28767;DHT22;15921;52.034;20.650;2022-08-03T00:15:41;16.20;99.90
28767;DHT22;15921;52.034;20.650;2022-08-03T00:18:07;16.20;99.90
28767;DHT22;15921;52.034;20.650;2022-08-03T00:20:32;16.30;99.90
28767;DHT22;15921;52.034;20.650;2022-08-03T00:22:58;16.20;99.90
28767;DHT22;15921;52.034;20.650;2022-08-03T00:25:24;16.20;99.90
28767;DHT22;15921;52.034;20.650;2022-08-03T00:27:49;16.10;99.90
28767;DHT22;15921;52.034;20.650;2022-08-03T00:30:15;16.20;99.90
28767;DHT22;15921;52.034;20.650;2022-08-03T00:32:40;16.10;99.90
28767;DHT22;15921;52.034;20.650;2022-08-03T00:35:06;16.20;99.90
28767;DHT22;15921;52.034;20.650;2022-08-03T00:37:32;16.10;99.90
28767;DHT22;15921;52.034;20.650;2022-08-03T00:39:58;16.00;99.90
28767;DHT22;15921;52.034;20.650;2022-08-03T00:42:23;16.00;99.90
28767;DHT22;15921;52.034;20.650;2022-08-03T00:44:49;16.10;99.90
28767;DHT22;15921;52.034;20.650;2022-08-03T00:47:14;16.00;99.90
28767;DHT22;15921;52.034;20.650;2022-08-03T00:49:40;16.00;99.90
28767;DHT22;15921;52.034;20.650;2022-08-03T00:52:09;16.00;99.90
28767;DHT22;15921;52.034;20.650;2022-08-03T00:54:36;15.90;99.90
28767;DHT22;15921;52.034;20.650;2022-08-03T00:57:02;15.90;99.90
28767;DHT22;15921;52.034;20.650;2022-08-03T00:59:30;15.80;99.90
28767;DHT22;15921;52.034;20.650;2022-08-03T01:01:55;15.80;99.90
28767;DHT22;15921;52.034;20.650;2022-08-03T01:04:21;15.80;99.90
28767;DHT22;15921;52.034;20.650;2022-08-03T01:07:05;15.80;99.90
28767;DHT22;15921;52.034;20.650;2022-08-03T01:14:43;15.70;99.90
28767;DHT22;15921;52.034;20.650;2022-08-03T01:17:17;15.70;99.90
28767;DHT22;15921;52.034;20.650;2022-08-03T01:19:59;15.70;99.90
28767;DHT22;15921;52.034;20.650;2022-08-03T01:27:45;15.70;99.90
28767;DHT22;15921;52.034;20.650;2022-08-03T01:30:13;15.80;99.90
28767;DHT22;15921;52.034;20.650;2022-08-03T01:32:47;15.80;99.90
28767;DHT22;15921;52.034;20.650;2022-08-03T01:35:16;15.80;99.90
28767;DHT22;15921;52.034;20.650;2022-08-03T01:37:46;15.80;99.90
28767;DHT22;15921;52.034;20.650;2022-08-03T01:40:14;15.80;99.90
28767;DHT22;15921;52.034;20.650;2022-08-03T01:42:40;15.80;99.90
28767;DHT22;15921;52.034;20.650;2022-08-03T01:45:07;15.70;99.90
28767;DHT22;15921;52.034;20.650;2022-08-03T01:47:34;15.60;99.90
28767;DHT22;15921;52.034;20.650;2022-08-03T01:50:00;15.50;99.90
28767;DHT22;15921;52.034;20.650;2022-08-03T01:52:26;15.50;99.90
28767;DHT22;15921;52.034;20.650;2022-08-03T01:54:52;15.50;99.90
28767;DHT22;15921;52.034;20.650;2022-08-03T01:57:18;15.50;99.90
28767;DHT22;15921;52.034;20.650;2022-08-03T01:59:46;15.50;99.90
28767;DHT22;15921;52.034;20.650;2022-08-03T02:02:13;15.50;99.90
28767;DHT22;15921;52.034;20.650;2022-08-03T02:04:40;15.50;99.90
28767;DHT22;15921;52.034;20.650;2022-08-03T02:07:06;15.50;99.90
28767;DHT22;15921;52.034;20.650;2022-08-03T02:09:33;15.40;99.90
28767;DHT22;15921;52.034;20.650;2022-08-03T02:12:01;15.40;99.90
28767;DHT22;15921;52.034;20.650;2022-08-03T02:14:27;15.30;99.90
28767;DHT22;15921;52.034;20.650;2022-08-03T02:16:53;15.30;99.90
28767;DHT22;15921;52.034;20.650;2022-08-03T02:19:19;15.20;99.90
28767;DHT22;15921;52.034;20.650;2022-08-03T02:21:44;15.20;99.90
28767;DHT22;15921;52.034;20.650;2022-08-03T02:24:11;15.20;99.90
28767;DHT22;15921;52.034;20.650;2022-08-03T02:26:37;15.20;99.90
28767;DHT22;15921;52.034;20.650;2022-08-03T02:29:10;15.20;99.90
28767;DHT22;15921;52.034;20.650;2022-08-03T02:31:37;15.20;99.90
28767;DHT22;15921;52.034;20.650;2022-08-03T02:34:07;15.10;99.90
28767;DHT22;15921;52.034;20.650;2022-08-03T02:36:35;15.10;99.90
28767;DHT22;15921;52.034;20.650;2022-08-03T02:39:02;15.10;99.90
28767;DHT22;15921;52.034;20.650;2022-08-03T02:41:36;15.10;99.90
28767;DHT22;15921;52.034;20.650;2022-08-03T02:44:03;15.20;99.90
28767;DHT22;15921;52.034;20.650;2022-08-03T02:46:31;15.20;99.90
28767;DHT22;15921;52.034;20.650;2022-08-03T02:48:59;15.20;99.90
28767;DHT22;15921;52.034;20.650;2022-08-03T02:51:25;15.20;99.90
28767;DHT22;15921;52.034;20.650;2022-08-03T02:53:52;15.20;99.90
28767;DHT22;15921;52.034;20.650;2022-08-03T02:56:19;15.10;99.90
28767;DHT22;15921;52.034;20.650;2022-08-03T02:58:45;15.00;99.90
28767;DHT22;15921;52.034;20.650;2022-08-03T03:01:11;15.00;99.90
28767;DHT22;15921;52.034;20.650;2022-08-03T03:03:39;15.00;99.90
28767;DHT22;15921;52.034;20.650;2022-08-03T03:06:04;15.00;99.90
28767;DHT22;15921;52.034;20.650;2022-08-03T03:08:31;15.00;99.90
28767;DHT22;15921;52.034;20.650;2022-08-03T03:10:58;15.00;99.90
28767;DHT22;15921;52.034;20.650;2022-08-03T03:13:24;15.00;99.90
28767;DHT22;15921;52.034;20.650;2022-08-03T03:15:51;15.00;99.90
28767;DHT22;15921;52.034;20.650;2022-08-03T03:18:18;15.10;99.90
28767;DHT22;15921;52.034;20.650;2022-08-03T03:20:44;15.20;99.90
28767;DHT22;15921;52.034;20.650;2022-08-03T03:23:11;15.20;99.90
28767;DHT22;15921;52.034;20.650;2022-08-03T03:25:37;15.20;99.90
28767;DHT22;15921;52.034;20.650;2022-08-03T03:28:03;15.20;99.90
28767;DHT22;15921;52.034;20.650;2022-08-03T03:30:28;15.30;99.90
28767;DHT22;15921;52.034;20.650;2022-08-03T03:32:54;15.30;99.90
28767;DHT22;15921;52.034;20.650;2022-08-03T03:35:21;15.40;99.90
28767;DHT22;15921;52.034;20.650;2022-08-03T03:37:47;15.40;99.90
28767;DHT22;15921;52.034;20.650;2022-08-03T03:40:12;15.40;99.90
28767;DHT22;15921;52.034;20.650;2022-08-03T03:42:38;15.50;99.90
28767;DHT22;15921;52.034;20.650;2022-08-03T03:45:06;15.50;99.90
28767;DHT22;15921;52.034;20.650;2022-08-03T03:47:33;15.60;99.90
28767;DHT22;15921;52.034;20.650;2022-08-03T03:49:58;15.70;99.90
28767;DHT22;15921;52.034;20.650;2022-08-03T03:52:24;15.80;99.90
28767;DHT22;15921;52.034;20.650;2022-08-03T03:54:50;15.90;99.90
28767;DHT22;15921;52.034;20.650;2022-08-03T03:57:15;16.00;99.90
28767;DHT22;15921;52.034;20.650;2022-08-03T03:59:41;16.00;99.90
28767;DHT22;15921;52.034;20.650;2022-08-03T04:02:07;16.10;99.90
28767;DHT22;15921;52.034;20.650;2022-08-03T04:04:33;16.20;99.90
28767;DHT22;15921;52.034;20.650;2022-08-03T04:07:17;16.30;99.90
28767;DHT22;15921;52.034;20.650;2022-08-03T04:10:02;16.40;99.90
28767;DHT22;15921;52.034;20.650;2022-08-03T04:12:48;16.40;99.90
28767;DHT22;15921;52.034;20.650;2022-08-03T04:15:15;16.50;99.90
28767;DHT22;15921;52.034;20.650;2022-08-03T04:17:42;16.60;99.90
28767;DHT22;15921;52.034;20.650;2022-08-03T04:20:08;16.70;99.90
28767;DHT22;15921;52.034;20.650;2022-08-03T04:22:35;16.90;99.90
28767;DHT22;15921;52.034;20.650;2022-08-03T04:25:03;17.00;99.90
28767;DHT22;15921;52.034;20.650;2022-08-03T04:27:34;17.20;99.90
28767;DHT22;15921;52.034;20.650;2022-08-03T04:30:01;17.30;99.90
28767;DHT22;15921;52.034;20.650;2022-08-03T04:32:27;17.40;99.90
28767;DHT22;15921;52.034;20.650;2022-08-03T04:34:54;17.60;99.90
28767;DHT22;15921;52.034;20.650;2022-08-03T04:39:48;17.80;99.90
28767;DHT22;15921;52.034;20.650;2022-08-03T04:42:14;17.90;99.90
28767;DHT22;15921;52.034;20.650;2022-08-03T04:44:41;17.90;99.90
28767;DHT22;15921;52.034;20.650;2022-08-03T04:47:08;18.00;99.90
28767;DHT22;15921;52.034;20.650;2022-08-03T04:49:37;18.00;99.90
28767;DHT22;15921;52.034;20.650;2022-08-03T04:52:03;18.00;99.90
28767;DHT22;15921;52.034;20.650;2022-08-03T04:54:29;18.10;99.90
28767;DHT22;15921;52.034;20.650;2022-08-03T04:56:55;18.20;99.90
28767;DHT22;15921;52.034;20.650;2022-08-03T04:59:20;18.20;99.90
28767;DHT22;15921;52.034;20.650;2022-08-03T05:01:46;18.30;99.90
28767;DHT22;15921;52.034;20.650;2022-08-03T05:04:11;18.30;99.90
28767;DHT22;15921;52.034;20.650;2022-08-03T05:06:37;18.40;99.90
28767;DHT22;15921;52.034;20.650;2022-08-03T05:09:03;18.40;99.90
28767;DHT22;15921;52.034;20.650;2022-08-03T05:11:28;18.50;99.90
28767;DHT22;15921;52.034;20.650;2022-08-03T05:13:54;18.50;99.90
28767;DHT22;15921;52.034;20.650;2022-08-03T05:16:20;18.60;99.90
28767;DHT22;15921;52.034;20.650;2022-08-03T05:18:45;18.70;99.90
28767;DHT22;15921;52.034;20.650;2022-08-03T05:21:11;18.90;99.90
28767;DHT22;15921;52.034;20.650;2022-08-03T05:23:39;19.00;99.90
28767;DHT22;15921;52.034;20.650;2022-08-03T05:26:04;19.10;99.90
28767;DHT22;15921;52.034;20.650;2022-08-03T05:28:30;19.20;99.90
28767;DHT22;15921;52.034;20.650;2022-08-03T05:30:55;19.30;99.90
28767;DHT22;15921;52.034;20.650;2022-08-03T05:33:21;19.30;99.90
28767;DHT22;15921;52.034;20.650;2022-08-03T05:35:47;19.30;99.90
28767;DHT22;15921;52.034;20.650;2022-08-03T05:38:12;19.30;99.90
28767;DHT22;15921;52.034;20.650;2022-08-03T05:40:38;19.30;99.90
28767;DHT22;15921;52.034;20.650;2022-08-03T05:43:03;19.30;99.90
28767;DHT22;15921;52.034;20.650;2022-08-03T05:45:29;19.30;99.90
28767;DHT22;15921;52.034;20.650;2022-08-03T05:47:55;19.30;99.90
28767;DHT22;15921;52.034;20.650;2022-08-03T05:50:20;19.20;99.90
28767;DHT22;15921;52.034;20.650;2022-08-03T05:52:46;19.20;99.90
28767;DHT22;15921;52.034;20.650;2022-08-03T05:55:12;19.20;99.90
28767;DHT22;15921;52.034;20.650;2022-08-03T05:57:38;19.20;99.90
28767;DHT22;15921;52.034;20.650;2022-08-03T06:00:05;19.30;99.90
28767;DHT22;15921;52.034;20.650;2022-08-03T06:02:31;19.50;99.90
28767;DHT22;15921;52.034;20.650;2022-08-03T06:04:57;19.60;99.90
28767;DHT22;15921;52.034;20.650;2022-08-03T06:07:22;19.80;99.90
28767;DHT22;15921;52.034;20.650;2022-08-03T06:09:48;20.00;99.90
28767;DHT22;15921;52.034;20.650;2022-08-03T06:12:13;20.20;99.90
28767;DHT22;15921;52.034;20.650;2022-08-03T06:14:39;20.40;99.90
28767;DHT22;15921;52.034;20.650;2022-08-03T06:17:05;20.60;99.90
28767;DHT22;15921;52.034;20.650;2022-08-03T06:19:30;20.90;99.90
28767;DHT22;15921;52.034;20.650;2022-08-03T06:21:56;21.10;99.90
28767;DHT22;15921;52.034;20.650;2022-08-03T06:24:22;21.30;99.90
28767;DHT22;15921;52.034;20.650;2022-08-03T06:26:48;21.50;99.90
28767;DHT22;15921;52.034;20.650;2022-08-03T06:29:13;21.80;99.90
28767;DHT22;15921;52.034;20.650;2022-08-03T06:31:39;21.90;99.90
28767;DHT22;15921;52.034;20.650;2022-08-03T06:34:05;22.90;99.90
28767;DHT22;15921;52.034;20.650;2022-08-03T06:36:31;22.40;99.90
28767;DHT22;15921;52.034;20.650;2022-08-03T06:38:57;22.60;99.90
28767;DHT22;15921;52.034;20.650;2022-08-03T06:41:23;22.70;99.90
28767;DHT22;15921;52.034;20.650;2022-08-03T06:43:49;22.80;99.90
28767;DHT22;15921;52.034;20.650;2022-08-03T06:46:14;22.90;99.90
28767;DHT22;15921;52.034;20.650;2022-08-03T06:48:40;22.90;99.90
28767;DHT22;15921;52.034;20.650;2022-08-03T06:51:06;22.90;99.90
28767;DHT22;15921;52.034;20.650;2022-08-03T06:53:32;22.90;99.90
28767;DHT22;15921;52.034;20.650;2022-08-03T06:55:57;22.90;99.90
28767;DHT22;15921;52.034;20.650;2022-08-03T06:58:23;22.90;99.90
28767;DHT22;15921;52.034;20.650;2022-08-03T07:00:48;22.90;99.90
28767;DHT22;15921;52.034;20.650;2022-08-03T07:03:14;22.90;99.90
28767;DHT22;15921;52.034;20.650;2022-08-03T07:05:40;23.00;99.90
28767;DHT22;15921;52.034;20.650;2022-08-03T07:08:06;23.20;99.90
28767;DHT22;15921;52.034;20.650;2022-08-03T07:10:32;23.30;99.90
28767;DHT22;15921;52.034;20.650;2022-08-03T07:12:57;23.50;99.90
28767;DHT22;15921;52.034;20.650;2022-08-03T07:15:23;23.70;99.90
28767;DHT22;15921;52.034;20.650;2022-08-03T07:17:49;24.00;99.90
28767;DHT22;15921;52.034;20.650;2022-08-03T07:20:15;24.30;99.90
28767;DHT22;15921;52.034;20.650;2022-08-03T07:22:43;24.60;99.90
28767;DHT22;15921;52.034;20.650;2022-08-03T07:25:08;24.90;99.90
28767;DHT22;15921;52.034;20.650;2022-08-03T07:27:34;25.10;99.90
28767;DHT22;15921;52.034;20.650;2022-08-03T07:30:00;25.50;99.90
28767;DHT22;15921;52.034;20.650;2022-08-03T07:32:26;25.70;99.90
28767;DHT22;15921;52.034;20.650;2022-08-03T07:34:52;25.90;99.90
28767;DHT22;15921;52.034;20.650;2022-08-03T07:37:18;26.30;99.90
28767;DHT22;15921;52.034;20.650;2022-08-03T07:39:44;26.60;99.90
28767;DHT22;15921;52.034;20.650;2022-08-03T07:42:09;26.80;99.90
28767;DHT22;15921;52.034;20.650;2022-08-03T07:44:35;27.10;99.60
28767;DHT22;15921;52.034;20.650;2022-08-03T07:47:00;27.30;99.10
28767;DHT22;15921;52.034;20.650;2022-08-03T07:49:26;27.50;96.00
28767;DHT22;15921;52.034;20.650;2022-08-03T07:51:51;27.60;94.90
28767;DHT22;15921;52.034;20.650;2022-08-03T07:54:36;27.70;95.20
28767;DHT22;15921;52.034;20.650;2022-08-03T07:57:01;27.90;93.40
28767;DHT22;15921;52.034;20.650;2022-08-03T07:59:27;28.00;92.80
28767;DHT22;15921;52.034;20.650;2022-08-03T08:01:52;28.00;92.00
28767;DHT22;15921;52.034;20.650;2022-08-03T08:04:18;28.00;89.70
28767;DHT22;15921;52.034;20.650;2022-08-03T08:06:44;28.10;89.70
28767;DHT22;15921;52.034;20.650;2022-08-03T08:09:09;28.10;88.30
28767;DHT22;15921;52.034;20.650;2022-08-03T08:11:36;27.90;84.90
28767;DHT22;15921;52.034;20.650;2022-08-03T08:14:02;27.80;86.70
28767;DHT22;15921;52.034;20.650;2022-08-03T08:16:28;27.70;84.80
28767;DHT22;15921;52.034;20.650;2022-08-03T08:18:54;27.70;83.20
28767;DHT22;15921;52.034;20.650;2022-08-03T08:21:19;27.80;86.60
28767;DHT22;15921;52.034;20.650;2022-08-03T08:23:45;27.80;86.80
28767;DHT22;15921;52.034;20.650;2022-08-03T08:26:11;27.70;85.70
28767;DHT22;15921;52.034;20.650;2022-08-03T08:28:36;27.70;86.20
28767;DHT22;15921;52.034;20.650;2022-08-03T08:31:02;27.60;85.30
28767;DHT22;15921;52.034;20.650;2022-08-03T08:33:28;27.80;85.40
28767;DHT22;15921;52.034;20.650;2022-08-03T08:35:55;28.00;82.80
28767;DHT22;15921;52.034;20.650;2022-08-03T08:38:21;28.20;83.80
28767;DHT22;15921;52.034;20.650;2022-08-03T08:40:48;28.30;83.90
28767;DHT22;15921;52.034;20.650;2022-08-03T08:43:14;28.40;83.90
28767;DHT22;15921;52.034;20.650;2022-08-03T08:45:39;28.50;81.20
28767;DHT22;15921;52.034;20.650;2022-08-03T08:48:05;28.50;84.80
28767;DHT22;15921;52.034;20.650;2022-08-03T08:50:31;28.50;82.80
28767;DHT22;15921;52.034;20.650;2022-08-03T08:52:59;28.30;81.70
28767;DHT22;15921;52.034;20.650;2022-08-03T08:55:25;27.90;83.00
28767;DHT22;15921;52.034;20.650;2022-08-03T08:57:58;27.70;83.50
28767;DHT22;15921;52.034;20.650;2022-08-03T09:00:25;27.50;84.50
28767;DHT22;15921;52.034;20.650;2022-08-03T09:02:51;27.30;86.60
28767;DHT22;15921;52.034;20.650;2022-08-03T09:05:17;27.10;82.70
28767;DHT22;15921;52.034;20.650;2022-08-03T09:07:44;26.90;83.50
28767;DHT22;15921;52.034;20.650;2022-08-03T09:10:10;26.80;86.50
28767;DHT22;15921;52.034;20.650;2022-08-03T09:12:43;26.60;83.40
28767;DHT22;15921;52.034;20.650;2022-08-03T09:15:16;26.60;85.90
28767;DHT22;15921;52.034;20.650;2022-08-03T09:17:41;26.70;87.50
28767;DHT22;15921;52.034;20.650;2022-08-03T09:20:07;26.70;88.30
28767;DHT22;15921;52.034;20.650;2022-08-03T09:22:34;26.80;83.70
28767;DHT22;15921;52.034;20.650;2022-08-03T09:25:01;26.70;84.30
28767;DHT22;15921;52.034;20.650;2022-08-03T09:27:28;26.60;84.20
28767;DHT22;15921;52.034;20.650;2022-08-03T09:29:53;26.70;84.50
28767;DHT22;15921;52.034;20.650;2022-08-03T09:32:22;26.80;84.40
28767;DHT22;15921;52.034;20.650;2022-08-03T09:34:49;26.70;84.00
28767;DHT22;15921;52.034;20.650;2022-08-03T09:37:15;26.60;85.70
28767;DHT22;15921;52.034;20.650;2022-08-03T09:39:41;26.70;84.90
28767;DHT22;15921;52.034;20.650;2022-08-03T09:44:36;27.00;86.60
28767;DHT22;15921;52.034;20.650;2022-08-03T09:47:02;27.40;85.00
28767;DHT22;15921;52.034;20.650;2022-08-03T09:49:28;27.70;84.30
28767;DHT22;15921;52.034;20.650;2022-08-03T09:51:54;28.10;81.10
28767;DHT22;15921;52.034;20.650;2022-08-03T09:54:29;28.40;80.40
28767;DHT22;15921;52.034;20.650;2022-08-03T09:56:55;28.60;76.50
28767;DHT22;15921;52.034;20.650;2022-08-03T09:59:29;28.70;77.30
28767;DHT22;15921;52.034;20.650;2022-08-03T10:01:55;28.70;79.00
28767;DHT22;15921;52.034;20.650;2022-08-03T10:04:21;28.50;78.80
28767;DHT22;15921;52.034;20.650;2022-08-03T10:07:03;28.40;78.40
28767;DHT22;15921;52.034;20.650;2022-08-03T10:09:29;28.30;81.00
28767;DHT22;15921;52.034;20.650;2022-08-03T10:11:55;28.20;79.10
28767;DHT22;15921;52.034;20.650;2022-08-03T10:14:21;28.20;79.50
28767;DHT22;15921;52.034;20.650;2022-08-03T10:16:47;28.10;79.00
28767;DHT22;15921;52.034;20.650;2022-08-03T10:19:13;28.10;81.50
28767;DHT22;15921;52.034;20.650;2022-08-03T10:21:40;27.90;81.10
28767;DHT22;15921;52.034;20.650;2022-08-03T10:24:07;27.90;83.20
28767;DHT22;15921;52.034;20.650;2022-08-03T10:26:35;28.00;84.10
28767;DHT22;15921;52.034;20.650;2022-08-03T10:29:03;28.20;80.20
28767;DHT22;15921;52.034;20.650;2022-08-03T10:31:32;28.30;78.90
28767;DHT22;15921;52.034;20.650;2022-08-03T10:33:58;28.40;78.20
28767;DHT22;15921;52.034;20.650;2022-08-03T10:36:26;28.50;75.30
28767;DHT22;15921;52.034;20.650;2022-08-03T10:38:55;28.50;75.60
28767;DHT22;15921;52.034;20.650;2022-08-03T10:41:22;28.60;74.50
28767;DHT22;15921;52.034;20.650;2022-08-03T10:46:19;28.90;78.90
28767;DHT22;15921;52.034;20.650;2022-08-03T10:48:46;29.00;74.10
28767;DHT22;15921;52.034;20.650;2022-08-03T10:51:12;29.10;73.40
28767;DHT22;15921;52.034;20.650;2022-08-03T10:53:39;29.10;73.50
28767;DHT22;15921;52.034;20.650;2022-08-03T10:56:19;29.30;72.90
28767;DHT22;15921;52.034;20.650;2022-08-03T10:59:10;29.40;74.30
28767;DHT22;15921;52.034;20.650;2022-08-03T11:01:52;29.50;69.70
28767;DHT22;15921;52.034;20.650;2022-08-03T11:04:18;29.80;71.50
28767;DHT22;15921;52.034;20.650;2022-08-03T11:06:44;29.90;72.50
28767;DHT22;15921;52.034;20.650;2022-08-03T11:09:17;29.80;69.10
28767;DHT22;15921;52.034;20.650;2022-08-03T11:11:44;29.70;70.40
28767;DHT22;15921;52.034;20.650;2022-08-03T11:14:11;29.80;69.10
28767;DHT22;15921;52.034;20.650;2022-08-03T11:16:38;29.70;71.10
28767;DHT22;15921;52.034;20.650;2022-08-03T11:19:06;29.80;73.90
28767;DHT22;15921;52.034;20.650;2022-08-03T11:33:04;30.00;69.30
28767;DHT22;15921;52.034;20.650;2022-08-03T11:37:30;29.70;67.70
28767;DHT22;15921;52.034;20.650;2022-08-03T11:39:56;29.70;67.50
28767;DHT22;15921;52.034;20.650;2022-08-03T11:47:20;29.70;69.10
28767;DHT22;15921;52.034;20.650;2022-08-03T11:49:46;29.80;69.40
28767;DHT22;15921;52.034;20.650;2022-08-03T11:52:12;29.80;68.30
28767;DHT22;15921;52.034;20.650;2022-08-03T11:54:38;30.10;69.40
28767;DHT22;15921;52.034;20.650;2022-08-03T11:57:03;30.70;68.00
28767;DHT22;15921;52.034;20.650;2022-08-03T11:59:32;31.20;67.80
28767;DHT22;15921;52.034;20.650;2022-08-03T12:02:08;31.60;65.00
28767;DHT22;15921;52.034;20.650;2022-08-03T12:04:51;31.80;64.90
28767;DHT22;15921;52.034;20.650;2022-08-03T12:07:16;32.00;67.60
28767;DHT22;15921;52.034;20.650;2022-08-03T12:12:26;32.80;60.40
28767;DHT22;15921;52.034;20.650;2022-08-03T12:14:52;33.00;61.10
28767;DHT22;15921;52.034;20.650;2022-08-03T12:17:17;33.90;62.00
28767;DHT22;15921;52.034;20.650;2022-08-03T12:19:43;35.60;59.10
28767;DHT22;15921;52.034;20.650;2022-08-03T12:22:09;37.50;56.60
28767;DHT22;15921;52.034;20.650;2022-08-03T12:24:41;39.30;53.90
28767;DHT22;15921;52.034;20.650;2022-08-03T12:27:07;40.60;49.90
28767;DHT22;15921;52.034;20.650;2022-08-03T12:29:33;41.40;46.10
28767;DHT22;15921;52.034;20.650;2022-08-03T12:31:59;42.40;45.10
28767;DHT22;15921;52.034;20.650;2022-08-03T12:34:43;43.20;42.30
28767;DHT22;15921;52.034;20.650;2022-08-03T12:37:09;43.70;41.90
28767;DHT22;15921;52.034;20.650;2022-08-03T12:39:34;44.10;40.50
28767;DHT22;15921;52.034;20.650;2022-08-03T12:42:00;42.10;42.60
28767;DHT22;15921;52.034;20.650;2022-08-03T12:44:30;40.50;44.60
28767;DHT22;15921;52.034;20.650;2022-08-03T12:46:56;40.90;45.00
28767;DHT22;15921;52.034;20.650;2022-08-03T12:49:22;42.70;43.40
28767;DHT22;15921;52.034;20.650;2022-08-03T12:54:17;46.10;39.90
28767;DHT22;15921;52.034;20.650;2022-08-03T12:56:56;44.90;37.70
28767;DHT22;15921;52.034;20.650;2022-08-03T12:59:22;45.00;39.50
28767;DHT22;15921;52.034;20.650;2022-08-03T13:01:48;45.60;37.60
28767;DHT22;15921;52.034;20.650;2022-08-03T13:04:23;43.60;40.10
28767;DHT22;15921;52.034;20.650;2022-08-03T13:09:45;42.30;40.70
28767;DHT22;15921;52.034;20.650;2022-08-03T13:12:14;41.30;42.80
28767;DHT22;15921;52.034;20.650;2022-08-03T13:14:40;40.70;45.20
28767;DHT22;15921;52.034;20.650;2022-08-03T13:17:06;39.80;46.50
28767;DHT22;15921;52.034;20.650;2022-08-03T13:19:32;38.70;45.10
28767;DHT22;15921;52.034;20.650;2022-08-03T13:21:58;37.70;45.50
28767;DHT22;15921;52.034;20.650;2022-08-03T13:24:24;37.80;45.10
28767;DHT22;15921;52.034;20.650;2022-08-03T13:26:50;40.70;42.00
28767;DHT22;15921;52.034;20.650;2022-08-03T13:29:15;40.80;42.00
28767;DHT22;15921;52.034;20.650;2022-08-03T13:31:41;42.50;40.40
28767;DHT22;15921;52.034;20.650;2022-08-03T13:34:07;43.90;39.20
28767;DHT22;15921;52.034;20.650;2022-08-03T13:36:32;45.00;37.80
28767;DHT22;15921;52.034;20.650;2022-08-03T13:38:58;46.50;36.60
28767;DHT22;15921;52.034;20.650;2022-08-03T13:41:23;47.80;35.20
28767;DHT22;15921;52.034;20.650;2022-08-03T13:43:49;48.70;33.50
28767;DHT22;15921;52.034;20.650;2022-08-03T13:46:15;49.20;33.00
28767;DHT22;15921;52.034;20.650;2022-08-03T13:48:40;49.90;32.70
28767;DHT22;15921;52.034;20.650;2022-08-03T13:51:06;50.00;33.10
28767;DHT22;15921;52.034;20.650;2022-08-03T13:53:31;49.90;31.70
28767;DHT22;15921;52.034;20.650;2022-08-03T13:55:57;49.70;32.50
28767;DHT22;15921;52.034;20.650;2022-08-03T13:58:23;49.90;32.30
28767;DHT22;15921;52.034;20.650;2022-08-03T14:00:48;49.40;30.70
28767;DHT22;15921;52.034;20.650;2022-08-03T14:03:14;49.40;31.60
28767;DHT22;15921;52.034;20.650;2022-08-03T14:05:40;49.80;31.10
28767;DHT22;15921;52.034;20.650;2022-08-03T14:08:06;50.00;30.90
28767;DHT22;15921;52.034;20.650;2022-08-03T14:10:35;50.50;31.00
28767;DHT22;15921;52.034;20.650;2022-08-03T14:13:02;50.50;31.20
28767;DHT22;15921;52.034;20.650;2022-08-03T14:15:28;50.10;31.00
28767;DHT22;15921;52.034;20.650;2022-08-03T14:17:54;49.50;31.30
28767;DHT22;15921;52.034;20.650;2022-08-03T14:20:20;48.60;31.00
28767;DHT22;15921;52.034;20.650;2022-08-03T14:22:45;48.00;31.80
28767;DHT22;15921;52.034;20.650;2022-08-03T14:25:11;47.40;32.40
28767;DHT22;15921;52.034;20.650;2022-08-03T14:27:36;46.20;34.30
28767;DHT22;15921;52.034;20.650;2022-08-03T14:30:02;44.30;36.00
28767;DHT22;15921;52.034;20.650;2022-08-03T14:32:28;44.30;37.10
28767;DHT22;15921;52.034;20.650;2022-08-03T14:34:53;45.20;36.00
28767;DHT22;15921;52.034;20.650;2022-08-03T14:37:19;44.70;36.20
28767;DHT22;15921;52.034;20.650;2022-08-03T14:39:45;44.60;34.60
28767;DHT22;15921;52.034;20.650;2022-08-03T14:42:12;44.10;36.70
28767;DHT22;15921;52.034;20.650;2022-08-03T14:44:37;43.70;35.20
28767;DHT22;15921;52.034;20.650;2022-08-03T14:47:03;43.50;34.40
28767;DHT22;15921;52.034;20.650;2022-08-03T14:49:28;43.40;34.80
28767;DHT22;15921;52.034;20.650;2022-08-03T14:51:54;43.40;34.30
28767;DHT22;15921;52.034;20.650;2022-08-03T14:54:20;43.70;34.80
28767;DHT22;15921;52.034;20.650;2022-08-03T14:56:46;44.30;34.40
28767;DHT22;15921;52.034;20.650;2022-08-03T14:59:12;45.50;34.60
28767;DHT22;15921;52.034;20.650;2022-08-03T15:01:37;46.60;34.00
28767;DHT22;15921;52.034;20.650;2022-08-03T15:04:03;47.20;33.90
28767;DHT22;15921;52.034;20.650;2022-08-03T15:06:28;47.70;34.00
28767;DHT22;15921;52.034;20.650;2022-08-03T15:08:54;48.20;33.60
28767;DHT22;15921;52.034;20.650;2022-08-03T15:11:20;48.30;32.40
28767;DHT22;15921;52.034;20.650;2022-08-03T15:13:45;48.20;33.00
28767;DHT22;15921;52.034;20.650;2022-08-03T15:16:11;48.30;33.00
28767;DHT22;15921;52.034;20.650;2022-08-03T15:18:36;48.20;32.40
28767;DHT22;15921;52.034;20.650;2022-08-03T15:21:02;47.60;33.00
28767;DHT22;15921;52.034;20.650;2022-08-03T15:23:28;47.40;33.70
28767;DHT22;15921;52.034;20.650;2022-08-03T15:25:53;47.90;33.00
28767;DHT22;15921;52.034;20.650;2022-08-03T15:28:19;48.70;32.00
28767;DHT22;15921;52.034;20.650;2022-08-03T15:30:44;49.00;31.20
28767;DHT22;15921;52.034;20.650;2022-08-03T15:33:10;49.40;31.20
28767;DHT22;15921;52.034;20.650;2022-08-03T15:35:36;49.70;31.40
28767;DHT22;15921;52.034;20.650;2022-08-03T15:38:01;49.80;29.90
28767;DHT22;15921;52.034;20.650;2022-08-03T15:40:27;49.70;30.00
28767;DHT22;15921;52.034;20.650;2022-08-03T15:42:53;49.80;30.60
28767;DHT22;15921;52.034;20.650;2022-08-03T15:45:18;49.70;31.30
28767;DHT22;15921;52.034;20.650;2022-08-03T15:47:44;49.50;31.50
28767;DHT22;15921;52.034;20.650;2022-08-03T15:50:09;49.30;30.50
28767;DHT22;15921;52.034;20.650;2022-08-03T15:52:36;48.70;31.70
28767;DHT22;15921;52.034;20.650;2022-08-03T15:55:02;48.00;32.80
28767;DHT22;15921;52.034;20.650;2022-08-03T15:57:28;47.60;32.40